Time;durP1;ratioP1;P1;durP2;ratioP2;P2;SDS_P1;SDS_P2;PMS_P1;PMS_P2;Temp;Humidity;BMP_temperature;BMP_pressure;BME280_temperature;BME280_humidity;BME280_pressure;Samples;Min_cycle;Max_cycle;Signal;HPM_P1;HPM_P2
2021/09/10 00:00:54;;;;;;;18.65;10.07;;;;;;;;;;5025084;28;20119;-56
2021/09/10 00:03:21;;;;;;;23.40;10.70;;;;;;;;;;5021304;28;20041;-56
2021/09/10 00:05:47;;;;;;;18.33;11.57;;;;;;;;;;5021900;28;20041;-56
2021/09/10 00:08:14;;;;;;;21.67;12.00;;;;;;;;;;5020685;28;20050;-56
2021/09/10 00:10:42;;;;;;;22.52;11.43;;;;;;;;;;5024482;28;20049;-56
2021/09/10 00:13:08;;;;;;;19.58;11.25;;;;;;;;;;5021409;28;20041;-57
2021/09/10 00:15:37;;;;;;;21.23;11.40;;;;;;;;;;5035681;28;20034;-56
2021/09/10 00:18:03;;;;;;;21.98;11.18;;;;;;;;;;5003757;28;20054;-56
2021/09/10 00:20:30;;;;;;;18.40;11.10;;;;;;;;;;5016249;28;20049;-56
2021/09/10 00:22:56;;;;;;;19.05;11.18;;;;;;;;;;5004853;28;20106;-56
2021/09/10 00:25:23;;;;;;;20.75;11.80;;;;;;;;;;5028925;28;20131;-56
2021/09/10 00:27:51;;;;;;;21.88;10.70;;;;;;;;;;5003461;28;20058;-56
2021/09/10 00:30:17;;;;;;;25.58;10.70;;;;;;;;;;5011867;28;20108;-56
2021/09/10 00:32:44;;;;;;;22.17;12.30;;;;;;;;;;5025124;28;20111;-56
2021/09/10 00:35:12;;;;;;;18.35;11.65;;;;;;;;;;5020548;28;20053;-56
2021/09/10 00:37:38;;;;;;;23.13;11.43;;;;;;;;;;5022977;28;20125;-56
2021/09/10 00:40:05;;;;;;;23.63;11.55;;;;;;;;;;5020227;28;20049;-56
2021/09/10 00:42:32;;;;;;;24.00;11.73;;;;;;;;;;5022099;28;20045;-56
2021/09/10 00:45:01;;;;;;;20.52;11.38;;;;;;;;;;5018772;28;20057;-56
2021/09/10 00:47:27;;;;;;;22.98;11.05;;;;;;;;;;5024425;28;20057;-55
2021/09/10 00:49:54;;;;;;;19.92;11.60;;;;;;;;;;5020642;28;20041;-56
2021/09/10 00:52:20;;;;;;;19.00;11.13;;;;;;;;;;5023628;28;20030;-56
2021/09/10 00:54:47;;;;;;;24.80;10.52;;;;;;;;;;5019565;28;20060;-57
2021/09/10 00:57:14;;;;;;;20.13;11.50;;;;;;;;;;5024191;28;20038;-55
2021/09/10 00:59:41;;;;;;;19.55;10.63;;;;;;;;;;5022801;28;20046;-56
2021/09/10 01:02:09;;;;;;;26.33;12.25;;;;;;;;;;5011855;28;20045;-56
2021/09/10 01:04:35;;;;;;;19.17;11.13;;;;;;;;;;5024111;28;20042;-56
2021/09/10 01:07:04;;;;;;;23.02;11.05;;;;;;;;;;5021758;28;20038;-56
2021/09/10 01:09:31;;;;;;;19.27;11.23;;;;;;;;;;5025497;28;20049;-56
2021/09/10 01:11:57;;;;;;;20.73;11.45;;;;;;;;;;5020592;28;20045;-57
2021/09/10 01:14:24;;;;;;;20.73;11.45;;;;;;;;;;5023185;28;20046;-56
2021/09/10 01:16:51;;;;;;;22.00;11.13;;;;;;;;;;5020184;28;20038;-56
2021/09/10 01:19:24;;;;;;;20.55;11.80;;;;;;;;;;5021894;28;20130;-56
2021/09/10 01:21:54;;;;;;;20.10;11.35;;;;;;;;;;5018959;28;20115;-56
2021/09/10 01:24:26;;;;;;;21.63;11.18;;;;;;;;;;5021927;28;20049;-57
2021/09/10 01:26:53;;;;;;;22.40;11.40;;;;;;;;;;5018991;28;20073;-54
2021/09/10 01:29:20;;;;;;;20.67;11.97;;;;;;;;;;5022882;28;20111;-57
2021/09/10 01:31:46;;;;;;;19.63;11.32;;;;;;;;;;5020195;28;20041;-57
2021/09/10 01:34:13;;;;;;;18.35;11.60;;;;;;;;;;5023588;28;20069;-57
2021/09/10 01:36:40;;;;;;;19.35;11.65;;;;;;;;;;5017671;28;20052;-57
2021/09/10 01:39:08;;;;;;;21.98;12.10;;;;;;;;;;5022212;28;20068;-57
2021/09/10 01:41:36;;;;;;;23.90;11.43;;;;;;;;;;5020850;28;20085;-57
2021/09/10 01:44:03;;;;;;;22.70;11.75;;;;;;;;;;5023514;28;20038;-57
2021/09/10 01:46:30;;;;;;;20.25;11.27;;;;;;;;;;5020024;28;20041;-57
2021/09/10 01:48:56;;;;;;;20.27;10.80;;;;;;;;;;5017181;28;20045;-58
2021/09/10 01:51:28;;;;;;;21.80;11.38;;;;;;;;;;5021209;28;20045;-57
2021/09/10 01:53:55;;;;;;;20.48;11.90;;;;;;;;;;5017084;28;20053;-57
2021/09/10 01:56:21;;;;;;;22.67;11.23;;;;;;;;;;5021329;28;20026;-56
2021/09/10 01:58:49;;;;;;;21.42;11.85;;;;;;;;;;5029089;28;20049;-57
2021/09/10 02:01:20;;;;;;;30.17;12.38;;;;;;;;;;5012600;28;20038;-56
2021/09/10 02:03:46;;;;;;;21.60;11.45;;;;;;;;;;5011966;28;20046;-57
2021/09/10 02:06:15;;;;;;;20.90;11.93;;;;;;;;;;5021255;28;20042;-57
2021/09/10 02:08:42;;;;;;;18.90;11.15;;;;;;;;;;5018951;28;20040;-57
2021/09/10 02:11:08;;;;;;;22.77;11.32;;;;;;;;;;5014598;28;20046;-56
2021/09/10 02:13:34;;;;;;;24.73;11.48;;;;;;;;;;5019052;28;20053;-55
2021/09/10 02:16:02;;;;;;;24.65;11.85;;;;;;;;;;5024019;28;20042;-56
2021/09/10 02:18:29;;;;;;;23.55;11.40;;;;;;;;;;5015336;28;20049;-57
2021/09/10 02:20:55;;;;;;;23.27;11.32;;;;;;;;;;5002866;28;20052;-57
2021/09/10 02:23:22;;;;;;;21.92;11.25;;;;;;;;;;5016954;28;20119;-56
2021/09/10 02:25:48;;;;;;;21.27;10.85;;;;;;;;;;5000732;28;20082;-56
2021/09/10 02:28:15;;;;;;;24.00;10.57;;;;;;;;;;5002717;28;20057;-57
2021/09/10 02:30:41;;;;;;;23.15;10.93;;;;;;;;;;5016853;28;20139;-57
2021/09/10 02:33:09;;;;;;;23.75;10.65;;;;;;;;;;5022380;28;20045;-57
2021/09/10 02:35:39;;;;;;;17.92;10.77;;;;;;;;;;5019065;28;20062;-57
2021/09/10 02:38:05;;;;;;;23.35;11.18;;;;;;;;;;5022293;28;20038;-57
2021/09/10 02:40:32;;;;;;;20.80;10.80;;;;;;;;;;5019351;28;20057;-56
2021/09/10 02:42:58;;;;;;;21.88;11.40;;;;;;;;;;5022520;28;20105;-57
2021/09/10 02:45:26;;;;;;;19.15;10.93;;;;;;;;;;5022347;28;20041;-57
2021/09/10 02:47:52;;;;;;;18.30;10.40;;;;;;;;;;5024411;28;20058;-54
2021/09/10 02:50:20;;;;;;;17.98;10.60;;;;;;;;;;5018888;28;20056;-57
2021/09/10 02:52:46;;;;;;;21.30;10.27;;;;;;;;;;5030225;28;20041;-57
2021/09/10 02:55:13;;;;;;;18.52;10.48;;;;;;;;;;5037802;28;20044;-57
2021/09/10 02:57:39;;;;;;;29.05;10.82;;;;;;;;;;5024934;28;20025;-56
2021/09/10 03:00:07;;;;;;;21.23;10.60;;;;;;;;;;5021545;28;20037;-57
2021/09/10 03:02:33;;;;;;;20.85;10.20;;;;;;;;;;5023876;28;20061;-56
2021/09/10 03:05:00;;;;;;;22.50;9.88;;;;;;;;;;5021611;28;20042;-57
2021/09/10 03:07:28;;;;;;;17.42;10.35;;;;;;;;;;5025109;28;20056;-56
2021/09/10 03:09:54;;;;;;;21.85;9.70;;;;;;;;;;5028104;28;20042;-56
2021/09/10 03:12:23;;;;;;;19.88;10.07;;;;;;;;;;5023715;28;20041;-56
2021/09/10 03:14:49;;;;;;;17.58;10.00;;;;;;;;;;5026249;28;20061;-57
2021/09/10 03:17:16;;;;;;;17.80;9.23;;;;;;;;;;5025317;28;20099;-56
2021/09/10 03:19:43;;;;;;;17.38;9.70;;;;;;;;;;5027490;28;20057;-56
2021/09/10 03:22:09;;;;;;;16.02;9.00;;;;;;;;;;5024180;28;20041;-56
2021/09/10 03:24:37;;;;;;;21.92;10.20;;;;;;;;;;5027700;28;20108;-55
2021/09/10 03:27:06;;;;;;;23.02;10.88;;;;;;;;;;5022638;28;20056;-56
2021/09/10 03:29:32;;;;;;;22.98;9.38;;;;;;;;;;5045752;28;20051;-55
2021/09/10 03:31:59;;;;;;;15.43;9.27;;;;;;;;;;5041964;28;20055;-56
2021/09/10 03:34:28;;;;;;;25.13;9.90;;;;;;;;;;5045563;28;20037;-56
2021/09/10 03:36:55;;;;;;;20.27;9.82;;;;;;;;;;5022663;28;20053;-55
2021/09/10 03:39:22;;;;;;;18.77;9.50;;;;;;;;;;5025034;28;20053;-57
2021/09/10 03:41:49;;;;;;;16.75;9.75;;;;;;;;;;5023439;28;20142;-56
2021/09/10 03:44:16;;;;;;;19.77;9.48;;;;;;;;;;5027222;28;20034;-56
2021/09/10 03:46:43;;;;;;;21.08;9.93;;;;;;;;;;5024193;28;20037;-57
2021/09/10 03:49:09;;;;;;;19.77;9.25;;;;;;;;;;5044737;28;20059;-57
2021/09/10 03:51:36;;;;;;;20.48;10.25;;;;;;;;;;5042284;28;20048;-55
2021/09/10 03:54:02;;;;;;;21.02;9.20;;;;;;;;;;5024754;28;20041;-56
2021/09/10 03:56:29;;;;;;;21.05;8.88;;;;;;;;;;5026857;28;20122;-56
2021/09/10 03:58:57;;;;;;;16.48;8.68;;;;;;;;;;5043552;28;20059;-56
2021/09/10 04:01:28;;;;;;;15.98;8.75;;;;;;;;;;5041312;28;20038;-56
2021/09/10 04:03:54;;;;;;;18.25;9.23;;;;;;;;;;5022454;28;20033;-56
2021/09/10 04:06:21;;;;;;;18.45;9.27;;;;;;;;;;5042379;28;20129;-55
2021/09/10 04:08:48;;;;;;;17.67;8.52;;;;;;;;;;5040088;28;20037;-56
2021/09/10 04:11:15;;;;;;;14.23;8.35;;;;;;;;;;5045133;28;20045;-56
2021/09/10 04:13:42;;;;;;;15.90;8.65;;;;;;;;;;5024553;28;20033;-56
2021/09/10 04:16:10;;;;;;;16.15;8.32;;;;;;;;;;5042258;28;20048;-56
2021/09/10 04:18:36;;;;;;;14.05;8.10;;;;;;;;;;5041925;28;20041;-56
2021/09/10 04:21:03;;;;;;;17.73;8.50;;;;;;;;;;5026899;28;20092;-56
2021/09/10 04:23:29;;;;;;;14.98;8.43;;;;;;;;;;5025712;28;20041;-57
2021/09/10 04:25:59;;;;;;;18.85;8.68;;;;;;;;;;5046036;28;20107;-55
2021/09/10 04:28:25;;;;;;;15.48;7.95;;;;;;;;;;5019891;28;20037;-55
2021/09/10 04:30:52;;;;;;;14.65;8.45;;;;;;;;;;5043507;28;20126;-56
2021/09/10 04:33:21;;;;;;;15.75;8.30;;;;;;;;;;5040349;28;20044;-56
2021/09/10 04:35:47;;;;;;;15.70;8.40;;;;;;;;;;5024041;28;20092;-55
2021/09/10 04:38:14;;;;;;;15.40;8.40;;;;;;;;;;5024856;28;20045;-56
2021/09/10 04:40:40;;;;;;;14.30;8.15;;;;;;;;;;5034834;28;20101;-57
2021/09/10 04:43:07;;;;;;;13.35;7.43;;;;;;;;;;5005869;28;20046;-58
2021/09/10 04:45:34;;;;;;;15.02;7.55;;;;;;;;;;5035170;28;20045;-59
2021/09/10 04:48:00;;;;;;;15.63;7.72;;;;;;;;;;5040219;28;20034;-58
2021/09/10 04:50:28;;;;;;;13.07;7.35;;;;;;;;;;5037898;28;20045;-58
2021/09/10 04:52:55;;;;;;;13.97;8.00;;;;;;;;;;5022309;28;20049;-57
2021/09/10 04:55:22;;;;;;;13.75;8.23;;;;;;;;;;5035679;28;20046;-57
2021/09/10 04:57:48;;;;;;;16.58;7.63;;;;;;;;;;5023493;28;20056;-59
2021/09/10 05:00:15;;;;;;;16.17;7.88;;;;;;;;;;5033573;28;20108;-58
2021/09/10 05:02:42;;;;;;;13.20;7.50;;;;;;;;;;5036651;28;20042;-58
2021/09/10 05:05:10;;;;;;;13.50;6.80;;;;;;;;;;5004865;28;20077;-58
2021/09/10 05:07:38;;;;;;;14.35;7.30;;;;;;;;;;5024301;28;20030;-58
2021/09/10 05:10:05;;;;;;;16.30;8.50;;;;;;;;;;5018459;28;20095;-59
2021/09/10 05:12:31;;;;;;;26.23;12.70;;;;;;;;;;5016691;28;20052;-55
2021/09/10 05:14:58;;;;;;;22.90;10.13;;;;;;;;;;5021186;28;20046;-56
2021/09/10 05:17:25;;;;;;;16.25;8.13;;;;;;;;;;5021807;28;20164;-55
2021/09/10 05:19:51;;;;;;;15.57;7.70;;;;;;;;;;5039544;28;20049;-55
2021/09/10 05:22:17;;;;;;;14.30;7.07;;;;;;;;;;5033023;28;20046;-56
2021/09/10 05:24:45;;;;;;;18.55;7.57;;;;;;;;;;5024104;28;20123;-55
2021/09/10 05:27:12;;;;;;;16.77;7.10;;;;;;;;;;5019567;28;20052;-56
2021/09/10 05:29:38;;;;;;;14.77;7.22;;;;;;;;;;5038883;28;20037;-56
2021/09/10 05:32:05;;;;;;;13.25;7.18;;;;;;;;;;5018572;28;20045;-56
2021/09/10 05:34:34;;;;;;;10.88;6.95;;;;;;;;;;5022445;28;20045;-56
2021/09/10 05:37:02;;;;;;;13.20;6.97;;;;;;;;;;5013494;28;20061;-55
2021/09/10 05:39:28;;;;;;;16.87;7.37;;;;;;;;;;5039149;28;20046;-56
2021/09/10 05:41:56;;;;;;;16.85;7.88;;;;;;;;;;5019017;28;20041;-54
2021/09/10 05:44:22;;;;;;;13.70;6.95;;;;;;;;;;5020458;28;20046;-56
2021/09/10 05:46:50;;;;;;;18.40;7.88;;;;;;;;;;5016770;28;20033;-56
2021/09/10 05:49:17;;;;;;;16.70;8.35;;;;;;;;;;5039546;28;20095;-56
2021/09/10 05:51:43;;;;;;;17.05;8.02;;;;;;;;;;5019259;28;20045;-56
2021/09/10 05:54:10;;;;;;;15.98;7.40;;;;;;;;;;5021296;28;20029;-55
2021/09/10 05:56:38;;;;;;;13.70;7.25;;;;;;;;;;5020031;28;20045;-55
2021/09/10 05:59:08;;;;;;;17.75;7.35;;;;;;;;;;5019978;28;20080;-55
2021/09/10 06:01:34;;;;;;;13.02;7.10;;;;;;;;;;5022345;28;20125;-53
2021/09/10 06:04:01;;;;;;;18.58;7.78;;;;;;;;;;5017835;28;20050;-56
2021/09/10 06:06:27;;;;;;;16.30;7.43;;;;;;;;;;5019743;28;20045;-56
2021/09/10 06:08:54;;;;;;;13.98;7.35;;;;;;;;;;5012486;28;20046;-57
2021/09/10 06:11:20;;;;;;;12.85;7.60;;;;;;;;;;5002937;28;20127;-57
2021/09/10 06:13:47;;;;;;;16.30;7.85;;;;;;;;;;5013998;28;20037;-56
2021/09/10 06:16:16;;;;;;;16.27;6.60;;;;;;;;;;5021942;28;20049;-56
2021/09/10 06:18:42;;;;;;;15.05;7.03;;;;;;;;;;5015955;28;20061;-52
2021/09/10 06:21:08;;;;;;;13.43;7.13;;;;;;;;;;5022234;28;20057;-56
2021/09/10 06:23:35;;;;;;;12.90;8.02;;;;;;;;;;5018667;28;20037;-56
2021/09/10 06:26:04;;;;;;;14.95;7.07;;;;;;;;;;5023891;28;20156;-56
2021/09/10 06:28:30;;;;;;;18.90;7.93;;;;;;;;;;5018621;28;20045;-55
2021/09/10 06:30:59;;;;;;;14.68;7.22;;;;;;;;;;5036860;28;20048;-54
2021/09/10 06:33:25;;;;;;;;;;;;;;;;;;5031618;28;20136;-56
2021/09/10 06:35:55;;;;;;;16.27;6.88;;;;;;;;;;5002093;28;20005;-56
2021/09/10 06:38:21;;;;;;;17.20;7.28;;;;;;;;;;5018326;28;20111;-56
2021/09/10 06:40:47;;;;;;;14.27;7.25;;;;;;;;;;5021965;28;20052;-55
2021/09/10 06:43:14;;;;;;;15.93;7.32;;;;;;;;;;5021598;28;20042;-56
2021/09/10 06:45:43;;;;;;;15.90;7.13;;;;;;;;;;5020880;28;20062;-54
2021/09/10 06:48:10;;;;;;;15.43;7.30;;;;;;;;;;5024123;28;20045;-56
2021/09/10 06:50:36;;;;;;;14.52;8.07;;;;;;;;;;5023434;28;20148;-57
2021/09/10 06:53:06;;;;;;;13.52;7.20;;;;;;;;;;5023504;28;20123;-55
2021/09/10 06:55:32;;;;;;;12.52;7.65;;;;;;;;;;5019254;28;20041;-56
2021/09/10 06:57:59;;;;;;;13.73;7.18;;;;;;;;;;5024984;28;20042;-55
2021/09/10 07:00:25;;;;;;;11.95;6.70;;;;;;;;;;5021161;28;20041;-56
2021/09/10 07:02:51;;;;;;;13.43;7.43;;;;;;;;;;5026435;28;20069;-56
2021/09/10 07:05:21;;;;;;;14.40;7.38;;;;;;;;;;5021507;28;20037;-55
2021/09/10 07:07:51;;;;;;;19.30;8.10;;;;;;;;;;5022988;28;20052;-56
2021/09/10 07:10:19;;;;;;;14.02;7.80;;;;;;;;;;5021868;28;20046;-56
2021/09/10 07:12:46;;;;;;;13.00;7.47;;;;;;;;;;5020961;28;20045;-56
2021/09/10 07:15:12;;;;;;;14.38;6.93;;;;;;;;;;5019657;28;20029;-57
2021/09/10 07:17:39;;;;;;;13.93;7.28;;;;;;;;;;5023031;28;20052;-56
2021/09/10 07:20:06;;;;;;;18.85;7.97;;;;;;;;;;5021171;28;20069;-56
2021/09/10 07:22:32;;;;;;;15.77;7.25;;;;;;;;;;5023417;28;20034;-55
2021/09/10 07:24:59;;;;;;;14.50;7.47;;;;;;;;;;5020366;28;20046;-57
2021/09/10 07:27:26;;;;;;;15.63;7.88;;;;;;;;;;5021866;28;20041;-56
2021/09/10 07:29:53;;;;;;;18.33;8.52;;;;;;;;;;5023325;28;20168;-56
2021/09/10 07:32:23;;;;;;;14.70;7.50;;;;;;;;;;5019105;28;20038;-56
2021/09/10 07:34:50;;;;;;;17.27;8.63;;;;;;;;;;5023826;28;20054;-56
2021/09/10 07:37:17;;;;;;;15.93;8.27;;;;;;;;;;5022646;28;20049;-56
2021/09/10 07:39:46;;;;;;;20.15;7.95;;;;;;;;;;5043256;28;20115;-55
2021/09/10 07:42:15;;;;;;;14.63;7.53;;;;;;;;;;5021281;28;20042;-55
2021/09/10 07:44:44;;;;;;;18.23;8.13;;;;;;;;;;5040431;28;20041;-56
2021/09/10 07:47:11;;;;;;;15.13;7.50;;;;;;;;;;5036686;28;20058;-55
2021/09/10 07:49:38;;;;;;;18.53;7.67;;;;;;;;;;5039312;28;20038;-56
2021/09/10 07:52:04;;;;;;;12.98;7.25;;;;;;;;;;5022790;28;20287;-55
2021/09/10 07:54:31;;;;;;;14.45;7.97;;;;;;;;;;5025491;28;20037;-56
2021/09/10 07:56:58;;;;;;;12.90;7.53;;;;;;;;;;5040681;28;20037;-56
2021/09/10 07:59:24;;;;;;;14.85;7.75;;;;;;;;;;5043518;28;20045;-56
2021/09/10 08:01:52;;;;;;;22.40;7.18;;;;;;;;;;5039985;28;20037;-55
2021/09/10 08:04:18;;;;;;;20.90;9.17;;;;;;;;;;5045775;28;20057;-55
2021/09/10 08:06:45;;;;;;;24.30;8.00;;;;;;;;;;5041447;28;20328;-56
2021/09/10 08:09:11;;;;;;;18.25;7.72;;;;;;;;;;5042286;28;20034;-55
2021/09/10 08:11:38;;;;;;;13.60;6.60;;;;;;;;;;5040220;28;20033;-55
2021/09/10 08:14:07;;;;;;;12.38;6.53;;;;;;;;;;5039110;28;20049;-56
2021/09/10 08:16:35;;;;;;;13.38;6.70;;;;;;;;;;5043736;28;20041;-55
2021/09/10 08:19:03;;;;;;;17.52;7.45;;;;;;;;;;5035797;28;20041;-56
2021/09/10 08:21:30;;;;;;;14.60;6.95;;;;;;;;;;5037832;28;20042;-56
2021/09/10 08:23:56;;;;;;;15.02;6.07;;;;;;;;;;5036832;28;20049;-56
2021/09/10 08:26:25;;;;;;;16.42;6.75;;;;;;;;;;5006171;28;20030;-52
2021/09/10 08:28:52;;;;;;;14.48;6.80;;;;;;;;;;5033991;28;20033;-57
2021/09/10 08:31:20;;;;;;;13.43;5.97;;;;;;;;;;5026786;28;20183;-55
2021/09/10 08:33:46;;;;;;;13.50;6.07;;;;;;;;;;5038199;28;20068;-56
2021/09/10 08:36:14;;;;;;;17.02;6.38;;;;;;;;;;5043184;28;20045;-54
2021/09/10 08:38:41;;;;;;;13.45;6.55;;;;;;;;;;5022590;28;20049;-56
2021/09/10 08:41:10;;;;;;;13.73;5.85;;;;;;;;;;5028239;28;20037;-56
2021/09/10 08:43:37;;;;;;;16.10;7.07;;;;;;;;;;5022705;28;20048;-56
2021/09/10 08:46:04;;;;;;;14.40;7.13;;;;;;;;;;5025768;28;20113;-56
2021/09/10 08:48:30;;;;;;;13.05;6.20;;;;;;;;;;5041315;28;20057;-56
2021/09/10 08:50:57;;;;;;;12.80;6.95;;;;;;;;;;5025630;28;20045;-54
2021/09/10 08:53:25;;;;;;;15.15;6.75;;;;;;;;;;5042299;28;20067;-56
2021/09/10 08:55:53;;;;;;;16.98;6.22;;;;;;;;;;5024137;28;20053;-55
2021/09/10 08:58:20;;;;;;;20.00;7.10;;;;;;;;;;5025265;28;20052;-56
2021/09/10 09:00:47;;;;;;;12.45;6.47;;;;;;;;;;5023401;28;20056;-55
2021/09/10 09:03:14;;;;;;;14.77;6.90;;;;;;;;;;5026115;28;20036;-56
2021/09/10 09:05:41;;;;;;;16.42;7.97;;;;;;;;;;5022425;28;20103;-56
2021/09/10 09:08:08;;;;;;;15.43;7.47;;;;;;;;;;5026382;28;20041;-56
2021/09/10 09:10:50;;;;;;;14.05;6.90;;;;;;;;;;5022246;28;20030;-54
2021/09/10 09:13:17;;;;;;;14.30;6.97;;;;;;;;;;5044941;28;20056;-56
2021/09/10 09:15:44;;;;;;;16.50;7.10;;;;;;;;;;5022807;28;20053;-56
2021/09/10 09:18:10;;;;;;;14.90;7.68;;;;;;;;;;5028703;28;20052;-57
2021/09/10 09:20:37;;;;;;;13.27;7.30;;;;;;;;;;5039026;28;20041;-56
2021/09/10 09:23:04;;;;;;;13.23;7.25;;;;;;;;;;5043452;28;20107;-56
2021/09/10 09:25:32;;;;;;;12.63;6.93;;;;;;;;;;5042424;28;20056;-57
2021/09/10 09:27:59;;;;;;;;;;;;;;;;;;5042901;28;20037;-57
2021/09/10 09:30:36;;;;;;;13.20;5.90;;;;;;;;;;5035084;28;19920;-56
2021/09/10 09:33:03;;;;;;;13.55;6.78;;;;;;;;;;5023464;28;20049;-57
2021/09/10 09:35:30;;;;;;;13.95;6.80;;;;;;;;;;5037340;28;20045;-56
2021/09/10 09:37:57;;;;;;;18.77;7.88;;;;;;;;;;5024604;28;20049;-56
2021/09/10 09:40:30;;;;;;;14.38;6.57;;;;;;;;;;5040480;28;20029;-55
2021/09/10 09:42:56;;;;;;;13.07;6.15;;;;;;;;;;5041882;28;20037;-57
2021/09/10 09:45:24;;;;;;;13.82;6.35;;;;;;;;;;5023734;28;20037;-56
2021/09/10 09:47:52;;;;;;;16.77;6.90;;;;;;;;;;5037433;28;20049;-57
2021/09/10 09:50:19;;;;;;;16.17;7.07;;;;;;;;;;5005361;28;20283;-57
2021/09/10 09:52:48;;;;;;;14.20;6.57;;;;;;;;;;5035542;28;20045;-57
2021/09/10 09:55:15;;;;;;;15.52;6.30;;;;;;;;;;5013981;28;20045;-57
2021/09/10 09:57:43;;;;;;;13.40;5.97;;;;;;;;;;5022625;28;20183;-57
2021/09/10 10:00:10;;;;;;;12.63;5.90;;;;;;;;;;5042754;28;20034;-57
2021/09/10 10:02:37;;;;;;;16.73;6.00;;;;;;;;;;5020729;28;20064;-57
2021/09/10 10:05:07;;;;;;;11.50;6.05;;;;;;;;;;5025654;28;20037;-57
2021/09/10 10:07:36;;;;;;;17.75;5.50;;;;;;;;;;5021685;28;20099;-57
2021/09/10 10:10:04;;;;;;;12.77;6.00;;;;;;;;;;5042252;28;20045;-57
2021/09/10 10:12:31;;;;;;;11.43;6.22;;;;;;;;;;5040500;28;20037;-57
2021/09/10 10:15:19;;;;;;;9.80;5.28;;;;;;;;;;5042740;28;20037;-57
2021/09/10 10:17:45;;;;;;;15.77;5.85;;;;;;;;;;5039121;28;20045;-57
2021/09/10 10:20:33;;;;;;;13.40;5.65;;;;;;;;;;5026216;28;20052;-57
2021/09/10 10:22:59;;;;;;;11.27;5.47;;;;;;;;;;5021380;28;20033;-57
2021/09/10 10:25:27;;;;;;;9.43;5.15;;;;;;;;;;5024699;28;20056;-57
2021/09/10 10:27:53;;;;;;;12.57;5.45;;;;;;;;;;5005236;28;20041;-57
2021/09/10 10:30:50;;;;;;;18.10;5.68;;;;;;;;;;5022535;28;20122;-57
2021/09/10 10:33:23;;;;;;;12.10;6.28;;;;;;;;;;4938616;29;20054;-56
2021/09/10 10:35:52;;;;;;;15.30;6.22;;;;;;;;;;4992944;28;20037;-57
2021/09/10 10:38:18;;;;;;;;;;;;;;;;;;5026395;28;20099;-57
2021/09/10 10:40:46;;;;;;;13.60;5.68;;;;;;;;;;5024015;28;19920;-57
2021/09/10 10:43:25;;;;;;;12.02;5.10;;;;;;;;;;5020555;28;20081;-57
2021/09/10 10:46:01;;;;;;;12.32;4.65;;;;;;;;;;5041892;28;20049;-57
2021/09/10 10:48:48;;;;;;;12.05;5.18;;;;;;;;;;5021879;28;20030;-57
2021/09/10 10:51:33;;;;;;;16.90;5.05;;;;;;;;;;5042980;28;20045;-57
2021/09/10 10:54:15;;;;;;;10.48;4.38;;;;;;;;;;5020616;28;20037;-57
2021/09/10 10:56:45;;;;;;;14.70;8.00;;;;;;;;;;5024286;28;20046;-57
2021/09/10 10:59:34;;;;;;;12.80;5.05;;;;;;;;;;5018677;28;20048;-56
2021/09/10 11:02:20;;;;;;;11.50;4.57;;;;;;;;;;5020904;28;20053;-57
2021/09/10 11:04:47;;;;;;;16.20;4.70;;;;;;;;;;5014922;28;20041;-57
2021/09/10 11:07:14;;;;;;;10.13;4.00;;;;;;;;;;5019727;28;20041;-57
2021/09/10 11:09:46;;;;;;;10.48;3.78;;;;;;;;;;5029253;28;20057;-57
2021/09/10 11:12:12;;;;;;;10.52;3.40;;;;;;;;;;5017979;28;20049;-57
2021/09/10 11:14:42;;;;;;;10.75;3.40;;;;;;;;;;5018108;28;20038;-57
2021/09/10 11:17:12;;;;;;;7.95;3.50;;;;;;;;;;5037816;28;20082;-57
2021/09/10 11:19:38;;;;;;;10.57;3.97;;;;;;;;;;5019055;28;20106;-57
2021/09/10 11:22:05;;;;;;;10.55;3.63;;;;;;;;;;5037272;28;20037;-57
2021/09/10 11:24:31;;;;;;;9.75;4.25;;;;;;;;;;5033830;28;20139;-57
2021/09/10 11:27:01;;;;;;;8.40;3.70;;;;;;;;;;5037480;28;20046;-57
2021/09/10 11:29:36;;;;;;;12.32;3.75;;;;;;;;;;5019849;28;20033;-57
2021/09/10 11:32:17;;;;;;;9.07;3.42;;;;;;;;;;5040811;28;20048;-57
2021/09/10 11:34:44;;;;;;;7.50;3.35;;;;;;;;;;5034631;28;20057;-58
2021/09/10 11:37:10;;;;;;;7.88;3.85;;;;;;;;;;5024024;28;20030;-57
2021/09/10 11:39:43;;;;;;;11.57;3.90;;;;;;;;;;5023644;28;20045;-57
2021/09/10 11:42:11;;;;;;;9.07;3.47;;;;;;;;;;5020783;28;20045;-57
2021/09/10 11:44:38;;;;;;;11.80;3.90;;;;;;;;;;5023513;28;20057;-57
2021/09/10 11:47:05;;;;;;;11.88;3.60;;;;;;;;;;5018456;28;20056;-58
2021/09/10 11:49:31;;;;;;;9.48;3.92;;;;;;;;;;5024400;28;20034;-57
2021/09/10 11:51:58;;;;;;;10.93;4.25;;;;;;;;;;5019897;28;20053;-57
2021/09/10 11:54:27;;;;;;;8.40;3.83;;;;;;;;;;5023240;28;20053;-57
2021/09/10 11:56:54;;;;;;;9.77;4.50;;;;;;;;;;5034134;28;20088;-59
2021/09/10 11:59:24;;;;;;;6.45;3.40;;;;;;;;;;5006061;28;20106;-58
2021/09/10 12:01:51;;;;;;;12.25;4.30;;;;;;;;;;5019170;28;20092;-57
2021/09/10 12:04:28;;;;;;;8.10;4.25;;;;;;;;;;5024059;28;20046;-57
2021/09/10 12:06:57;;;;;;;14.13;5.20;;;;;;;;;;5032941;28;20056;-58
2021/09/10 12:09:25;;;;;;;12.25;4.90;;;;;;;;;;5004867;28;20053;-57
2021/09/10 12:12:09;;;;;;;8.10;4.15;;;;;;;;;;5007451;28;20029;-58
2021/09/10 12:14:38;;;;;;;8.23;4.03;;;;;;;;;;5023078;28;20045;-57
2021/09/10 12:17:05;;;;;;;6.95;3.50;;;;;;;;;;5018936;28;20040;-58
2021/09/10 12:19:34;;;;;;;14.75;4.53;;;;;;;;;;5023497;28;20127;-57
2021/09/10 12:22:01;;;;;;;9.65;4.18;;;;;;;;;;5020186;28;20022;-58
2021/09/10 12:24:27;;;;;;;8.20;4.43;;;;;;;;;;5021843;28;20114;-57
2021/09/10 12:26:55;;;;;;;10.68;4.07;;;;;;;;;;5018004;28;20038;-58
2021/09/10 12:29:28;;;;;;;11.25;3.50;;;;;;;;;;5021009;28;20037;-58
2021/09/10 12:31:56;;;;;;;8.93;4.20;;;;;;;;;;5037209;28;20127;-57
2021/09/10 12:34:23;;;;;;;12.13;3.85;;;;;;;;;;5022722;28;20045;-57
2021/09/10 12:36:49;;;;;;;10.88;4.15;;;;;;;;;;5020747;28;20030;-57
2021/09/10 12:39:16;;;;;;;18.30;4.72;;;;;;;;;;5014024;28;20050;-57
2021/09/10 12:41:43;;;;;;;16.25;6.20;;;;;;;;;;5018404;28;20057;-57
2021/09/10 12:44:10;;;;;;;15.07;5.25;;;;;;;;;;5017081;28;20048;-57
2021/09/10 12:46:36;;;;;;;11.25;4.85;;;;;;;;;;5024756;28;20069;-57
2021/09/10 12:49:04;;;;;;;11.10;4.75;;;;;;;;;;5017677;28;20045;-57
2021/09/10 12:51:31;;;;;;;12.30;5.40;;;;;;;;;;5019687;28;20065;-57
2021/09/10 12:53:58;;;;;;;11.80;5.00;;;;;;;;;;5019467;28;20052;-57
2021/09/10 12:56:24;;;;;;;13.98;5.18;;;;;;;;;;5021421;28;20061;-57
2021/09/10 12:58:51;;;;;;;18.35;5.40;;;;;;;;;;5022539;28;20030;-58
2021/09/10 13:01:17;;;;;;;15.10;5.43;;;;;;;;;;5023618;28;20054;-58
2021/09/10 13:03:44;;;;;;;12.95;5.63;;;;;;;;;;5014318;28;20068;-57
2021/09/10 13:06:12;;;;;;;11.68;5.00;;;;;;;;;;5025530;28;20042;-57
2021/09/10 13:08:38;;;;;;;13.20;5.55;;;;;;;;;;5015039;28;20037;-57
2021/09/10 13:11:05;;;;;;;12.40;5.50;;;;;;;;;;5022733;28;20045;-58
2021/09/10 13:13:31;;;;;;;11.18;5.50;;;;;;;;;;5019388;28;20069;-57
2021/09/10 13:16:01;;;;;;;13.63;6.32;;;;;;;;;;5018891;28;20042;-57
2021/09/10 13:18:27;;;;;;;11.60;5.65;;;;;;;;;;5019166;28;20041;-57
2021/09/10 13:20:54;;;;;;;10.98;6.13;;;;;;;;;;5012202;28;20073;-57
2021/09/10 13:23:22;;;;;;;24.30;7.60;;;;;;;;;;5018223;28;20061;-58
2021/09/10 13:25:49;;;;;;;11.82;6.63;;;;;;;;;;5013572;28;20050;-57
2021/09/10 13:28:16;;;;;;;11.93;7.63;;;;;;;;;;5020651;28;20101;-56
2021/09/10 13:30:43;;;;;;;12.95;7.30;;;;;;;;;;5019633;28;20056;-57
2021/09/10 13:33:09;;;;;;;13.82;7.18;;;;;;;;;;5039726;28;20049;-58
2021/09/10 13:35:37;;;;;;;16.08;8.52;;;;;;;;;;5021198;28;20053;-57
2021/09/10 13:38:04;;;;;;;11.88;7.55;;;;;;;;;;5019862;28;20041;-57
2021/09/10 13:40:31;;;;;;;15.68;7.65;;;;;;;;;;5017652;28;20048;-57
2021/09/10 13:42:58;;;;;;;12.40;7.38;;;;;;;;;;5019006;28;20037;-57
2021/09/10 13:45:25;;;;;;;12.43;7.05;;;;;;;;;;5017936;28;20034;-56
2021/09/10 13:47:52;;;;;;;16.83;8.02;;;;;;;;;;5024320;28;20041;-56
2021/09/10 13:50:20;;;;;;;15.95;8.25;;;;;;;;;;5018369;28;20130;-55
2021/09/10 13:52:47;;;;;;;16.65;8.00;;;;;;;;;;5020215;28;20046;-55
2021/09/10 13:55:13;;;;;;;18.17;9.52;;;;;;;;;;5016834;28;20061;-56
2021/09/10 13:57:42;;;;;;;14.50;6.80;;;;;;;;;;5021487;28;20029;-56
2021/09/10 14:00:08;;;;;;;;;;;;;;;;;;5018612;28;20037;-56
2021/09/10 14:02:35;;;;;;;12.98;6.38;;;;;;;;;;5015251;28;19925;-55
2021/09/10 14:05:02;;;;;;;18.73;5.45;;;;;;;;;;5039094;28;20068;-56
2021/09/10 14:07:28;;;;;;;14.38;5.82;;;;;;;;;;5036737;28;20057;-56
2021/09/10 14:09:58;;;;;;;12.57;5.93;;;;;;;;;;5020334;28;20029;-56
2021/09/10 14:12:24;;;;;;;11.70;5.78;;;;;;;;;;5018753;28;20042;-57
2021/09/10 14:14:57;;;;;;;10.52;5.35;;;;;;;;;;5027693;28;20029;-57
2021/09/10 14:17:25;;;;;;;11.05;6.07;;;;;;;;;;5033933;28;20033;-55
2021/09/10 14:19:52;;;;;;;14.85;6.20;;;;;;;;;;5020141;28;20052;-56
2021/09/10 14:22:18;;;;;;;10.05;6.07;;;;;;;;;;5034348;28;20046;-55
2021/09/10 14:24:46;;;;;;;11.65;6.22;;;;;;;;;;5022893;28;20049;-55
2021/09/10 14:27:12;;;;;;;9.98;6.22;;;;;;;;;;5016146;28;20053;-54
2021/09/10 14:29:39;;;;;;;14.10;6.82;;;;;;;;;;5021309;28;20044;-53
2021/09/10 14:32:07;;;;;;;14.55;6.63;;;;;;;;;;5017563;28;20041;-54